createdAt,value
2018-06-08T00:09:38.720Z,95859.71
2018-06-08T00:12:48.367Z,95855.99
2018-06-08T00:26:20.015Z,95862.25
2018-06-08T00:29:07.136Z,95864.16
2018-06-08T00:32:33.550Z,95864.98
2018-06-08T00:35:33.082Z,95866.56
2018-06-08T00:38:27.642Z,95854.85
2018-06-08T00:41:31.236Z,95851.09
2018-06-08T00:44:27.682Z,95847.91
2018-06-08T00:47:32.360Z,95846.49
2018-06-08T00:53:38.909Z,95848.36
2018-06-08T00:59:39.044Z,95848.23
2018-06-08T01:02:30.173Z,95843.21
2018-06-08T01:06:40.577Z,95840.13
2018-06-08T01:09:35.772Z,95835.02
2018-06-08T01:12:27.596Z,95828.89
2018-06-08T01:15:13.255Z,95823.05
2018-06-08T01:20:59.614Z,95835.17
2018-06-08T01:23:42.267Z,95826.30
2018-06-08T01:26:47.935Z,95649.59
2018-06-08T01:29:36.733Z,95824.33
2018-06-08T01:32:21.536Z,95830.45
2018-06-08T01:35:08.184Z,95826.55
2018-06-08T01:37:54.431Z,95820.05
2018-06-08T01:40:54.141Z,95819.38
2018-06-08T01:46:27.611Z,95823.42
2018-06-08T01:49:12.081Z,95817.55
2018-06-08T01:52:03.760Z,95820.64
2018-06-08T01:57:58.111Z,95825.02
2018-06-08T02:03:37.005Z,95826.06
2018-06-08T02:09:10.388Z,95826.72
2018-06-08T02:14:46.798Z,95818.92
2018-06-08T02:17:42.827Z,95828.69
2018-06-08T02:20:26.878Z,95831.53
2018-06-08T02:23:06.059Z,95662.70
2018-06-08T02:25:59.777Z,95834.02
2018-06-08T02:28:39.835Z,95830.61
2018-06-08T02:31:17.186Z,95836.28
2018-06-08T02:34:05.962Z,95829.34
2018-06-08T02:36:52.270Z,95823.87
2018-06-08T02:39:31.173Z,95830.09
2018-06-08T02:42:07.609Z,95833.17
2018-06-08T02:44:46.275Z,95828.09
2018-06-08T02:47:22.469Z,95832.63
2018-06-08T02:50:03.729Z,95829.84
2018-06-08T02:55:18.072Z,95824.35
2018-06-08T02:58:04.113Z,95727.53
2018-06-08T03:00:49.863Z,95823.83
2018-06-08T03:03:23.424Z,95826.97
2018-06-08T03:05:58.519Z,95820.98
2018-06-08T03:08:33.576Z,95820.98
2018-06-08T03:11:09.187Z,95827.14
2018-06-08T03:13:42.490Z,95833.77
2018-06-08T03:16:16.705Z,95834.22
2018-06-08T03:18:56.030Z,95843.12
2018-06-08T03:21:32.485Z,95844.48
2018-06-08T03:24:09.532Z,95839.11
2018-06-08T03:26:43.183Z,95832.44
2018-06-08T03:29:18.498Z,95841.53
2018-06-08T03:31:53.549Z,95845.17
2018-06-08T03:34:27.009Z,95838.42
2018-06-08T03:37:05.057Z,95845.09
2018-06-08T03:39:42.255Z,95841.06
2018-06-08T03:42:17.652Z,95841.55
2018-06-08T03:44:53.108Z,95842.49
2018-06-08T03:47:29.895Z,95838.95
2018-06-08T03:50:05.020Z,95843.00
2018-06-08T03:52:34.953Z,95846.27
2018-06-08T03:55:06.858Z,95852.22
2018-06-08T03:57:39.332Z,95852.09
2018-06-08T04:00:12.375Z,95855.61
2018-06-08T04:02:53.964Z,95853.31
2018-06-08T04:05:25.599Z,95856.22
2018-06-08T04:07:58.124Z,95858.02
2018-06-08T04:10:28.748Z,95858.95
2018-06-08T04:12:58.723Z,95855.63
2018-06-08T04:15:29.063Z,95855.42
2018-06-08T04:17:59.554Z,95852.64
2018-06-08T04:20:29.562Z,95857.18
2018-06-08T04:22:58.727Z,95857.48
2018-06-08T04:25:28.647Z,95856.80
2018-06-08T04:27:57.788Z,95683.78
2018-06-08T04:30:27.841Z,95856.67
2018-06-08T04:33:01.365Z,95855.20
2018-06-08T04:35:31.677Z,95856.80
2018-06-08T04:38:02.943Z,95863.93
2018-06-08T04:40:32.800Z,95864.87
2018-06-08T04:43:04.703Z,95866.95
2018-06-08T04:45:34.998Z,95868.41
2018-06-08T04:48:04.283Z,95860.39
2018-06-08T04:50:34.886Z,95853.27
2018-06-08T04:53:07.762Z,95853.05
2018-06-08T04:55:40.182Z,95857.06
2018-06-08T04:58:17.748Z,95860.53
2018-06-08T05:00:49.321Z,95869.83
2018-06-08T05:03:20.700Z,95872.58
2018-06-08T05:05:52.064Z,95872.73
2018-06-08T05:08:21.755Z,95871.58
2018-06-08T05:10:51.271Z,95871.62
2018-06-08T05:13:20.241Z,95862.70
2018-06-08T05:15:49.369Z,95859.69
2018-06-08T05:18:18.512Z,95863.98
2018-06-08T05:20:59.082Z,95873.00
2018-06-08T05:23:36.225Z,95878.42
2018-06-08T05:26:21.160Z,95871.25
2018-06-08T05:29:14.284Z,95868.28
2018-06-08T05:31:48.962Z,95860.09
2018-06-08T05:34:33.187Z,95855.66
2018-06-08T05:37:06.393Z,95860.05
2018-06-08T05:39:35.407Z,95867.23
2018-06-08T05:42:05.435Z,95872.27
2018-06-08T05:44:36.444Z,95870.42
2018-06-08T05:47:10.710Z,95876.98
2018-06-08T05:49:49.060Z,95879.76
2018-06-08T05:52:18.437Z,95881.10
2018-06-08T05:54:59.228Z,95885.87
2018-06-08T05:57:36.137Z,95884.38
2018-06-08T06:00:15.888Z,95883.59
2018-06-08T06:02:56.029Z,95889.45
2018-06-08T06:05:34.208Z,95885.05
2018-06-08T06:08:21.622Z,95881.86
2018-06-08T06:11:06.658Z,95875.86
2018-06-08T06:13:43.462Z,95876.13
2018-06-08T06:16:31.848Z,95885.24
2018-06-08T06:22:01.237Z,95725.16
2018-06-08T06:24:45.162Z,95883.80
2018-06-08T06:31:44.107Z,95888.28
2018-06-08T06:40:56.957Z,95882.61
2018-06-08T06:43:33.760Z,95881.82
2018-06-08T06:52:54.767Z,95884.83
2018-06-08T07:07:42.477Z,95894.65
2018-06-08T07:10:12.493Z,95893.30
2018-06-08T07:13:15.712Z,95888.86
2018-06-08T07:24:16.707Z,95889.58
2018-06-08T07:27:08.451Z,95889.42
2018-06-08T07:29:45.593Z,95892.92
2018-06-08T07:41:08.898Z,95898.95
2018-06-08T07:44:13.800Z,95900.41
2018-06-08T07:47:11.651Z,95898.80
2018-06-08T07:50:05.163Z,95903.32
2018-06-08T07:52:54.153Z,95890.88
2018-06-08T07:55:54.888Z,95897.09
2018-06-08T07:58:38.784Z,95898.80
2018-06-08T08:01:20.547Z,95891.23
2018-06-08T08:04:11.563Z,95885.41
2018-06-08T08:08:01.457Z,95885.34
2018-06-08T08:14:23.855Z,95878.81
2018-06-08T08:17:06.035Z,95874.97
2018-06-08T08:22:44.626Z,95867.88
2018-06-08T08:28:43.012Z,95866.55
2018-06-08T08:44:38.926Z,95849.15
2018-06-08T08:51:56.802Z,95859.05
2018-06-08T09:02:59.489Z,95855.69
2018-06-08T09:11:18.734Z,95851.28
2018-06-08T11:12:42.068Z,95777.42
2018-06-08T11:15:39.719Z,95777.68
2018-06-08T11:18:32.458Z,95776.97
2018-06-08T11:24:32.400Z,95773.09
2018-06-08T11:32:11.157Z,95759.41
2018-06-08T11:44:49.367Z,95763.80
2018-06-08T11:53:03.153Z,95759.20
2018-06-08T11:58:04.998Z,95760.99
2018-06-08T12:04:00.863Z,95745.60
2018-06-08T12:07:03.969Z,95747.27
2018-06-08T12:10:04.185Z,95751.20
2018-06-08T12:15:25.542Z,95742.11
2018-06-08T12:18:58.182Z,95741.45
2018-06-08T12:22:33.085Z,95733.07
2018-06-08T12:25:10.590Z,95735.04
2018-06-08T12:34:33.789Z,95742.45
2018-06-08T12:37:16.480Z,95745.50
2018-06-08T12:43:04.388Z,95735.61
2018-06-08T12:45:59.089Z,95737.41
2018-06-08T13:21:59.137Z,95698.09
2018-06-08T13:46:00.532Z,95668.54
2018-06-08T14:02:05.678Z,95649.91
2018-06-08T14:04:54.970Z,95667.16
2018-06-08T14:15:04.431Z,95647.16
2018-06-08T14:18:01.726Z,95643.83
2018-06-08T14:20:37.319Z,95636.94
2018-06-08T14:23:36.882Z,95636.15
2018-06-08T14:31:16.548Z,95636.92
2018-06-08T14:34:26.329Z,95631.37
2018-06-08T14:44:17.859Z,95611.73
2018-06-08T15:01:33.771Z,95598.75
2018-06-08T15:04:05.462Z,95592.14
2018-06-08T15:39:30.032Z,95552.88
2018-06-08T15:48:17.152Z,95544.11
2018-06-08T15:50:57.787Z,95547.27
2018-06-08T15:53:41.933Z,95544.89
2018-06-08T15:56:30.636Z,95551.27
2018-06-08T15:59:18.667Z,95548.89
2018-06-08T16:04:47.501Z,95550.44
2018-06-08T16:08:34.340Z,95548.31
2018-06-08T16:14:57.620Z,95546.22
2018-06-08T16:17:51.653Z,95538.81
2018-06-08T16:30:17.231Z,95542.97
2018-06-08T16:36:13.448Z,95545.56
2018-06-08T16:38:53.717Z,95544.51
2018-06-08T16:42:42.465Z,95546.91
2018-06-08T16:45:17.014Z,95552.30
2018-06-08T16:48:54.280Z,95555.48
2018-06-08T16:55:44.948Z,95561.39
2018-06-08T17:01:35.191Z,95550.60
2018-06-08T17:04:17.061Z,95552.78
2018-06-08T17:11:42.256Z,95556.72
2018-06-08T17:21:56.693Z,95564.37
2018-06-08T17:27:50.920Z,95570.41
2018-06-08T17:30:28.930Z,95567.43
2018-06-08T17:33:06.893Z,95567.73
2018-06-08T17:39:18.195Z,95571.27
2018-06-08T17:42:16.783Z,95564.36
2018-06-08T17:44:53.823Z,95558.17
2018-06-08T17:47:30.064Z,95559.45
2018-06-08T17:50:09.492Z,95559.50
2018-06-08T17:52:42.479Z,95557.11
2018-06-08T18:01:04.751Z,95563.66
2018-06-08T18:03:38.606Z,95571.66
2018-06-08T18:06:18.403Z,95565.02
2018-06-08T18:09:02.033Z,95569.03
2018-06-08T18:11:31.937Z,95570.08
2018-06-08T18:16:54.595Z,95565.05
2018-06-08T18:19:35.696Z,95559.41
2018-06-08T18:22:07.662Z,95555.84
2018-06-08T18:24:44.002Z,95558.09
2018-06-08T18:27:18.688Z,95554.11
2018-06-08T18:29:51.277Z,95553.31
2018-06-08T18:32:34.871Z,95552.80
2018-06-08T18:35:10.892Z,95556.27
2018-06-08T18:37:48.375Z,95551.30
2018-06-08T18:40:27.072Z,95558.95
2018-06-08T18:42:58.181Z,95564.16
2018-06-08T18:45:31.965Z,95563.17
2018-06-08T18:48:07.185Z,95564.98
2018-06-08T18:50:40.399Z,95570.25
2018-06-08T18:53:19.388Z,95563.55
2018-06-08T18:55:49.311Z,95558.18
2018-06-08T18:58:22.213Z,95566.17
2018-06-08T19:00:58.100Z,95563.39
2018-06-08T19:03:28.925Z,95564.66
2018-06-08T19:06:04.985Z,95556.35
2018-06-08T19:08:36.479Z,95556.84
2018-06-08T19:11:06.917Z,95555.20
2018-06-08T19:13:37.285Z,95562.92
2018-06-08T19:16:08.603Z,95558.77
2018-06-08T19:18:38.815Z,95557.61
2018-06-08T19:21:13.609Z,95565.87
2018-06-08T19:23:44.596Z,95557.68
2018-06-08T19:26:14.896Z,95561.47
2018-06-08T19:28:45.613Z,95559.66
2018-06-08T19:31:16.036Z,95552.31
2018-06-08T19:33:46.029Z,95557.41
2018-06-08T19:36:15.702Z,95556.91
2018-06-08T19:38:46.258Z,95562.27
2018-06-08T19:41:15.446Z,95555.42
2018-06-08T19:43:46.077Z,95555.37
2018-06-08T19:46:19.068Z,95552.05
2018-06-08T19:48:49.730Z,95538.62
2018-06-08T19:51:19.177Z,95525.92
2018-06-08T19:53:51.258Z,95521.98
2018-06-08T19:56:21.311Z,95531.14
2018-06-08T19:58:54.912Z,95540.68
2018-06-08T20:01:26.405Z,95534.20
2018-06-08T20:03:56.712Z,95531.11
2018-06-08T20:06:27.876Z,95532.73
2018-06-08T20:08:59.488Z,95542.92
2018-06-08T20:11:28.760Z,95541.61
2018-06-08T20:13:58.167Z,95533.77
2018-06-08T20:16:27.447Z,95532.72
2018-06-08T20:18:58.585Z,95531.55
2018-06-08T20:21:27.809Z,95534.41
2018-06-08T20:23:57.031Z,95536.45
2018-06-08T20:26:26.548Z,95546.09
2018-06-08T20:28:56.425Z,95544.30
2018-06-08T20:31:25.730Z,95536.55
2018-06-08T20:33:55.133Z,95539.63
2018-06-08T20:36:24.254Z,95539.22
2018-06-08T20:38:53.516Z,95541.05
2018-06-08T20:41:22.833Z,95546.23
2018-06-08T20:43:53.032Z,95550.19
2018-06-08T20:46:22.264Z,95545.34
2018-06-08T20:48:51.602Z,95555.10
2018-06-08T20:51:20.978Z,95559.30
2018-06-08T20:53:50.258Z,95559.39
2018-06-08T20:56:19.479Z,95551.53
2018-06-08T20:58:49.006Z,95549.63
2018-06-08T21:01:19.863Z,95544.83
2018-06-08T21:03:49.974Z,95551.16
2018-06-08T21:06:19.236Z,95553.41
2018-06-08T21:08:48.502Z,95557.73
2018-06-08T21:11:17.939Z,95564.28
2018-06-08T21:13:47.544Z,95566.22
2018-06-08T21:16:17.209Z,95573.86
2018-06-08T21:18:47.670Z,95568.06
2018-06-08T21:21:17.261Z,95570.94
2018-06-08T21:23:46.534Z,95579.52
2018-06-08T21:26:16.597Z,95571.75
2018-06-08T21:28:47.473Z,95571.81
2018-06-08T21:31:16.980Z,95576.89
2018-06-08T21:33:46.169Z,95583.27
2018-06-08T21:36:15.499Z,95591.09
2018-06-08T21:38:45.702Z,95589.69
2018-06-08T21:41:14.943Z,95593.27
2018-06-08T21:43:44.352Z,95597.80
2018-06-08T21:46:13.638Z,95595.55
2018-06-08T21:48:43.507Z,95591.12
2018-06-08T21:51:12.734Z,95590.75
2018-06-08T21:53:43.125Z,95591.16
2018-06-08T21:56:12.865Z,95591.75
2018-06-08T21:58:42.129Z,95592.19
2018-06-08T22:01:11.761Z,95601.28
2018-06-08T22:03:40.858Z,95610.26
2018-06-08T22:06:10.647Z,95617.13
2018-06-08T22:08:40.477Z,95620.14
2018-06-08T22:11:10.677Z,95620.30
2018-06-08T22:13:41.702Z,95612.56
2018-06-08T22:16:10.898Z,95615.61
2018-06-08T22:18:41.070Z,95608.64
2018-06-08T22:21:10.397Z,95612.71
2018-06-08T22:23:40.225Z,95608.24
2018-06-08T22:26:11.274Z,95612.02
2018-06-08T22:28:40.940Z,95615.83
2018-06-08T22:31:11.355Z,95612.22
2018-06-08T22:33:41.327Z,95617.45
2018-06-08T22:36:12.220Z,95625.25
2018-06-08T22:38:42.429Z,95635.89
2018-06-08T22:41:11.784Z,95642.33
2018-06-08T22:43:41.125Z,95644.45
2018-06-08T22:46:11.456Z,95638.93
2018-06-08T22:48:40.512Z,95633.00
2018-06-08T22:51:09.940Z,95633.81
2018-06-08T22:53:39.311Z,95633.71
2018-06-08T22:56:08.695Z,95630.14
2018-06-08T22:58:37.968Z,95631.84
2018-06-08T23:01:07.207Z,95630.91
2018-06-08T23:03:36.383Z,95638.38
2018-06-08T23:06:05.491Z,95638.53
2018-06-08T23:08:34.555Z,95642.67
2018-06-08T23:11:03.808Z,95638.23
2018-06-08T23:13:33.108Z,95634.30
2018-06-08T23:16:02.199Z,95625.25
2018-06-08T23:18:31.406Z,95630.59
2018-06-08T23:21:01.983Z,95635.76
2018-06-08T23:23:32.212Z,95635.76
2018-06-08T23:26:01.412Z,95635.26
2018-06-08T23:28:30.661Z,95632.75
2018-06-08T23:30:59.826Z,95633.53
2018-06-08T23:33:29.033Z,95637.55
2018-06-08T23:35:58.200Z,95639.95
2018-06-08T23:38:27.490Z,95639.46
2018-06-08T23:40:56.771Z,95640.77
2018-06-08T23:43:26.182Z,95634.58
2018-06-08T23:45:56.628Z,95631.67
2018-06-08T23:48:25.941Z,95631.47
2018-06-08T23:50:55.271Z,95630.16
2018-06-08T23:53:24.452Z,95627.55
2018-06-08T23:55:54.777Z,95627.27
2018-06-08T23:58:24.174Z,95620.80
